Terminal Aerodrome Forecast
Issued by NWS

Current Version | Previous Version | Text Only | Print | Product List | Glossary Off
Versions: 1 2 3 4 5 6 7 8 9 10 11 12 13 14 15 16 17 18 19 20 21 22 23 24 25

000
FTUS41 KPBZ 031720
TAFMGW
TAF
KMGW 031720Z 0318/0418 24006KT P6SM SCT035
     FM040700 VRB01KT 3SM BR SKC
     FM040900 00000KT 1SM BR SKC
     FM041400 10003KT P6SM FEW035=

USA.gov is the U.S. government's official web portal to all federal, state and local government web resources and services.